sensor_id;sensor_type;location;lat;lon;timestamp;P1;durP1;ratioP1;P2;durP2;ratioP2
60352;SDS011;46196;52.970;6.954;2022-12-07T00:01:23;7.53;;;4.15;;
60352;SDS011;46196;52.970;6.954;2022-12-07T00:03:51;8.27;;;4.00;;
60352;SDS011;46196;52.970;6.954;2022-12-07T00:06:19;6.30;;;3.78;;
60352;SDS011;46196;52.970;6.954;2022-12-07T00:08:45;7.68;;;3.47;;
60352;SDS011;46196;52.970;6.954;2022-12-07T00:11:16;12.18;;;3.80;;
60352;SDS011;46196;52.970;6.954;2022-12-07T00:13:44;4.60;;;2.67;;
60352;SDS011;46196;52.970;6.954;2022-12-07T00:16:14;10.25;;;3.85;;
60352;SDS011;46196;52.970;6.954;2022-12-07T00:18:43;6.80;;;3.10;;
60352;SDS011;46196;52.970;6.954;2022-12-07T00:21:11;6.88;;;3.28;;
60352;SDS011;46196;52.970;6.954;2022-12-07T00:23:38;3.72;;;2.42;;
60352;SDS011;46196;52.970;6.954;2022-12-07T00:28:35;9.98;;;3.35;;
60352;SDS011;46196;52.970;6.954;2022-12-07T00:31:05;5.75;;;3.00;;
60352;SDS011;46196;52.970;6.954;2022-12-07T00:33:33;5.10;;;2.92;;
60352;SDS011;46196;52.970;6.954;2022-12-07T00:35:59;7.63;;;2.35;;
60352;SDS011;46196;52.970;6.954;2022-12-07T00:38:30;6.25;;;2.65;;
60352;SDS011;46196;52.970;6.954;2022-12-07T00:40:58;5.00;;;2.83;;
60352;SDS011;46196;52.970;6.954;2022-12-07T00:43:25;6.45;;;2.85;;
60352;SDS011;46196;52.970;6.954;2022-12-07T00:45:51;5.05;;;2.58;;
60352;SDS011;46196;52.970;6.954;2022-12-07T00:48:17;6.40;;;2.50;;
60352;SDS011;46196;52.970;6.954;2022-12-07T00:50:43;7.30;;;2.58;;
60352;SDS011;46196;52.970;6.954;2022-12-07T00:53:09;5.82;;;2.38;;
60352;SDS011;46196;52.970;6.954;2022-12-07T00:55:35;6.13;;;2.40;;
60352;SDS011;46196;52.970;6.954;2022-12-07T00:58:01;4.88;;;2.30;;
60352;SDS011;46196;52.970;6.954;2022-12-07T01:00:27;5.40;;;2.60;;
60352;SDS011;46196;52.970;6.954;2022-12-07T01:02:53;6.13;;;2.45;;
60352;SDS011;46196;52.970;6.954;2022-12-07T01:05:20;5.65;;;2.30;;
60352;SDS011;46196;52.970;6.954;2022-12-07T01:07:45;4.93;;;2.30;;
60352;SDS011;46196;52.970;6.954;2022-12-07T01:10:12;5.55;;;2.03;;
60352;SDS011;46196;52.970;6.954;2022-12-07T01:12:39;5.50;;;2.35;;
60352;SDS011;46196;52.970;6.954;2022-12-07T01:15:05;3.10;;;2.00;;
60352;SDS011;46196;52.970;6.954;2022-12-07T01:17:31;4.50;;;2.25;;
60352;SDS011;46196;52.970;6.954;2022-12-07T01:19:57;4.85;;;2.10;;
60352;SDS011;46196;52.970;6.954;2022-12-07T01:22:23;5.03;;;2.20;;
60352;SDS011;46196;52.970;6.954;2022-12-07T01:24:49;7.68;;;1.98;;
60352;SDS011;46196;52.970;6.954;2022-12-07T01:27:14;6.95;;;1.90;;
60352;SDS011;46196;52.970;6.954;2022-12-07T01:29:40;4.45;;;2.10;;
60352;SDS011;46196;52.970;6.954;2022-12-07T01:32:06;6.38;;;2.28;;
60352;SDS011;46196;52.970;6.954;2022-12-07T01:34:32;6.47;;;2.13;;
60352;SDS011;46196;52.970;6.954;2022-12-07T01:36:58;4.47;;;1.90;;
60352;SDS011;46196;52.970;6.954;2022-12-07T01:39:24;2.05;;;1.80;;
60352;SDS011;46196;52.970;6.954;2022-12-07T01:41:52;6.17;;;2.53;;
60352;SDS011;46196;52.970;6.954;2022-12-07T01:44:23;3.85;;;1.98;;
60352;SDS011;46196;52.970;6.954;2022-12-07T01:46:52;3.22;;;1.73;;
60352;SDS011;46196;52.970;6.954;2022-12-07T01:49:24;5.82;;;2.20;;
60352;SDS011;46196;52.970;6.954;2022-12-07T01:51:57;7.60;;;2.20;;
60352;SDS011;46196;52.970;6.954;2022-12-07T01:54:28;4.20;;;2.08;;
60352;SDS011;46196;52.970;6.954;2022-12-07T01:56:54;5.32;;;2.38;;
60352;SDS011;46196;52.970;6.954;2022-12-07T01:59:23;6.80;;;2.10;;
60352;SDS011;46196;52.970;6.954;2022-12-07T02:01:51;6.32;;;1.90;;
60352;SDS011;46196;52.970;6.954;2022-12-07T02:04:17;5.15;;;2.00;;
60352;SDS011;46196;52.970;6.954;2022-12-07T02:06:44;2.08;;;1.67;;
60352;SDS011;46196;52.970;6.954;2022-12-07T02:09:11;5.35;;;2.28;;
60352;SDS011;46196;52.970;6.954;2022-12-07T02:11:37;6.57;;;2.50;;
60352;SDS011;46196;52.970;6.954;2022-12-07T02:14:03;1.98;;;1.60;;
60352;SDS011;46196;52.970;6.954;2022-12-07T02:21:51;6.18;;;2.03;;
60352;SDS011;46196;52.970;6.954;2022-12-07T02:24:54;4.68;;;2.22;;
60352;SDS011;46196;52.970;6.954;2022-12-07T02:27:38;6.40;;;2.10;;
60352;SDS011;46196;52.970;6.954;2022-12-07T02:30:13;5.00;;;1.83;;
60352;SDS011;46196;52.970;6.954;2022-12-07T02:35:20;2.55;;;1.70;;
60352;SDS011;46196;52.970;6.954;2022-12-07T02:40:38;2.83;;;1.67;;
60352;SDS011;46196;52.970;6.954;2022-12-07T02:43:23;8.00;;;2.10;;
60352;SDS011;46196;52.970;6.954;2022-12-07T02:45:51;8.87;;;2.10;;
60352;SDS011;46196;52.970;6.954;2022-12-07T02:48:20;5.97;;;1.92;;
60352;SDS011;46196;52.970;6.954;2022-12-07T02:50:48;3.10;;;1.67;;
60352;SDS011;46196;52.970;6.954;2022-12-07T02:53:35;5.80;;;2.20;;
60352;SDS011;46196;52.970;6.954;2022-12-07T03:13:48;8.80;;;2.30;;
60352;SDS011;46196;52.970;6.954;2022-12-07T03:16:27;2.22;;;1.52;;
60352;SDS011;46196;52.970;6.954;2022-12-07T03:19:10;4.57;;;1.92;;
60352;SDS011;46196;52.970;6.954;2022-12-07T03:21:44;3.97;;;1.77;;
60352;SDS011;46196;52.970;6.954;2022-12-07T03:24:15;2.90;;;2.15;;
60352;SDS011;46196;52.970;6.954;2022-12-07T03:26:47;2.90;;;1.80;;
60352;SDS011;46196;52.970;6.954;2022-12-07T03:29:33;4.15;;;1.90;;
60352;SDS011;46196;52.970;6.954;2022-12-07T03:32:19;2.10;;;1.55;;
60352;SDS011;46196;52.970;6.954;2022-12-07T03:40:26;9.73;;;2.10;;
60352;SDS011;46196;52.970;6.954;2022-12-07T03:43:06;4.32;;;2.05;;
60352;SDS011;46196;52.970;6.954;2022-12-07T03:45:47;4.07;;;1.73;;
60352;SDS011;46196;52.970;6.954;2022-12-07T03:48:35;5.90;;;2.00;;
60352;SDS011;46196;52.970;6.954;2022-12-07T03:54:06;6.75;;;2.20;;
60352;SDS011;46196;52.970;6.954;2022-12-07T03:56:39;5.25;;;2.20;;
60352;SDS011;46196;52.970;6.954;2022-12-07T03:59:07;5.28;;;2.08;;
60352;SDS011;46196;52.970;6.954;2022-12-07T04:01:33;3.08;;;1.77;;
60352;SDS011;46196;52.970;6.954;2022-12-07T04:03:59;4.10;;;1.70;;
60352;SDS011;46196;52.970;6.954;2022-12-07T04:06:25;8.55;;;2.22;;
60352;SDS011;46196;52.970;6.954;2022-12-07T04:08:51;5.32;;;1.42;;
60352;SDS011;46196;52.970;6.954;2022-12-07T04:11:16;3.60;;;1.67;;
60352;SDS011;46196;52.970;6.954;2022-12-07T04:13:42;4.35;;;1.98;;
60352;SDS011;46196;52.970;6.954;2022-12-07T04:16:26;5.03;;;1.67;;
60352;SDS011;46196;52.970;6.954;2022-12-07T04:18:52;3.13;;;1.80;;
60352;SDS011;46196;52.970;6.954;2022-12-07T04:21:18;2.85;;;1.70;;
60352;SDS011;46196;52.970;6.954;2022-12-07T04:23:43;6.05;;;1.70;;
60352;SDS011;46196;52.970;6.954;2022-12-07T04:26:09;3.47;;;1.90;;
60352;SDS011;46196;52.970;6.954;2022-12-07T04:28:35;3.50;;;1.80;;
60352;SDS011;46196;52.970;6.954;2022-12-07T04:31:00;1.73;;;1.40;;
60352;SDS011;46196;52.970;6.954;2022-12-07T04:33:26;2.97;;;2.05;;
60352;SDS011;46196;52.970;6.954;2022-12-07T04:35:52;11.02;;;2.47;;
60352;SDS011;46196;52.970;6.954;2022-12-07T04:38:18;4.30;;;2.22;;
60352;SDS011;46196;52.970;6.954;2022-12-07T04:40:44;4.43;;;1.88;;
60352;SDS011;46196;52.970;6.954;2022-12-07T04:43:09;3.15;;;1.58;;
60352;SDS011;46196;52.970;6.954;2022-12-07T04:45:35;3.83;;;1.70;;
60352;SDS011;46196;52.970;6.954;2022-12-07T04:48:01;3.50;;;1.75;;
60352;SDS011;46196;52.970;6.954;2022-12-07T04:50:27;5.28;;;1.73;;
60352;SDS011;46196;52.970;6.954;2022-12-07T04:52:52;2.45;;;1.70;;
60352;SDS011;46196;52.970;6.954;2022-12-07T04:55:18;3.22;;;1.85;;
60352;SDS011;46196;52.970;6.954;2022-12-07T04:57:44;4.97;;;1.73;;
60352;SDS011;46196;52.970;6.954;2022-12-07T05:00:10;3.30;;;1.60;;
60352;SDS011;46196;52.970;6.954;2022-12-07T05:02:37;6.40;;;1.73;;
60352;SDS011;46196;52.970;6.954;2022-12-07T05:05:03;3.53;;;1.80;;
60352;SDS011;46196;52.970;6.954;2022-12-07T05:07:29;4.60;;;1.90;;
60352;SDS011;46196;52.970;6.954;2022-12-07T05:09:55;4.22;;;1.85;;
60352;SDS011;46196;52.970;6.954;2022-12-07T05:12:20;6.82;;;2.20;;
60352;SDS011;46196;52.970;6.954;2022-12-07T05:14:46;6.88;;;2.30;;
60352;SDS011;46196;52.970;6.954;2022-12-07T05:17:12;3.30;;;1.73;;
60352;SDS011;46196;52.970;6.954;2022-12-07T05:19:37;6.28;;;2.22;;
60352;SDS011;46196;52.970;6.954;2022-12-07T05:22:03;3.78;;;1.73;;
60352;SDS011;46196;52.970;6.954;2022-12-07T05:24:29;4.90;;;2.03;;
60352;SDS011;46196;52.970;6.954;2022-12-07T05:26:54;4.47;;;1.90;;
60352;SDS011;46196;52.970;6.954;2022-12-07T05:29:20;5.55;;;1.77;;
60352;SDS011;46196;52.970;6.954;2022-12-07T05:31:46;5.05;;;1.90;;
60352;SDS011;46196;52.970;6.954;2022-12-07T05:34:12;3.03;;;1.80;;
60352;SDS011;46196;52.970;6.954;2022-12-07T05:36:37;4.10;;;1.80;;
60352;SDS011;46196;52.970;6.954;2022-12-07T05:39:03;8.45;;;1.70;;
60352;SDS011;46196;52.970;6.954;2022-12-07T05:41:29;3.97;;;1.75;;
60352;SDS011;46196;52.970;6.954;2022-12-07T05:44:14;2.78;;;1.77;;
60352;SDS011;46196;52.970;6.954;2022-12-07T05:46:45;5.32;;;1.80;;
60352;SDS011;46196;52.970;6.954;2022-12-07T05:49:11;2.30;;;2.10;;
60352;SDS011;46196;52.970;6.954;2022-12-07T05:51:37;3.20;;;2.00;;
60352;SDS011;46196;52.970;6.954;2022-12-07T05:54:03;3.28;;;1.95;;
60352;SDS011;46196;52.970;6.954;2022-12-07T05:56:28;7.75;;;2.10;;
60352;SDS011;46196;52.970;6.954;2022-12-07T05:58:54;4.35;;;1.80;;
60352;SDS011;46196;52.970;6.954;2022-12-07T06:01:39;2.47;;;1.67;;
60352;SDS011;46196;52.970;6.954;2022-12-07T06:04:05;4.20;;;2.10;;
60352;SDS011;46196;52.970;6.954;2022-12-07T06:06:31;3.47;;;2.10;;
60352;SDS011;46196;52.970;6.954;2022-12-07T06:08:57;3.33;;;1.77;;
60352;SDS011;46196;52.970;6.954;2022-12-07T06:11:23;5.95;;;2.20;;
60352;SDS011;46196;52.970;6.954;2022-12-07T06:14:07;3.70;;;1.80;;
60352;SDS011;46196;52.970;6.954;2022-12-07T06:16:33;3.40;;;1.70;;
60352;SDS011;46196;52.970;6.954;2022-12-07T06:18:59;7.88;;;1.83;;
60352;SDS011;46196;52.970;6.954;2022-12-07T06:21:24;7.07;;;2.00;;
60352;SDS011;46196;52.970;6.954;2022-12-07T06:23:53;3.58;;;1.77;;
60352;SDS011;46196;52.970;6.954;2022-12-07T06:26:20;3.53;;;1.80;;
60352;SDS011;46196;52.970;6.954;2022-12-07T06:28:46;8.40;;;2.20;;
60352;SDS011;46196;52.970;6.954;2022-12-07T06:31:12;1.95;;;1.70;;
60352;SDS011;46196;52.970;6.954;2022-12-07T06:33:38;8.52;;;2.08;;
60352;SDS011;46196;52.970;6.954;2022-12-07T06:36:04;5.65;;;1.75;;
60352;SDS011;46196;52.970;6.954;2022-12-07T06:38:30;4.00;;;1.80;;
60352;SDS011;46196;52.970;6.954;2022-12-07T06:40:55;12.27;;;2.33;;
60352;SDS011;46196;52.970;6.954;2022-12-07T06:43:21;3.80;;;1.80;;
60352;SDS011;46196;52.970;6.954;2022-12-07T06:45:47;7.78;;;2.20;;
60352;SDS011;46196;52.970;6.954;2022-12-07T06:48:13;3.25;;;1.80;;
60352;SDS011;46196;52.970;6.954;2022-12-07T06:50:39;7.63;;;1.92;;
60352;SDS011;46196;52.970;6.954;2022-12-07T06:53:04;5.57;;;1.88;;
60352;SDS011;46196;52.970;6.954;2022-12-07T06:55:30;6.78;;;1.70;;
60352;SDS011;46196;52.970;6.954;2022-12-07T06:57:56;5.75;;;1.70;;
60352;SDS011;46196;52.970;6.954;2022-12-07T07:00:22;8.02;;;1.88;;
60352;SDS011;46196;52.970;6.954;2022-12-07T07:02:48;4.97;;;1.80;;
60352;SDS011;46196;52.970;6.954;2022-12-07T07:05:14;5.85;;;2.10;;
60352;SDS011;46196;52.970;6.954;2022-12-07T07:07:41;4.35;;;2.33;;
60352;SDS011;46196;52.970;6.954;2022-12-07T07:10:07;2.92;;;1.77;;
60352;SDS011;46196;52.970;6.954;2022-12-07T07:12:33;3.90;;;2.30;;
60352;SDS011;46196;52.970;6.954;2022-12-07T07:14:58;5.80;;;2.00;;
60352;SDS011;46196;52.970;6.954;2022-12-07T07:17:24;3.85;;;1.95;;
60352;SDS011;46196;52.970;6.954;2022-12-07T07:19:50;7.03;;;1.88;;
60352;SDS011;46196;52.970;6.954;2022-12-07T07:22:15;9.15;;;1.95;;
60352;SDS011;46196;52.970;6.954;2022-12-07T07:24:41;4.93;;;2.17;;
60352;SDS011;46196;52.970;6.954;2022-12-07T07:27:07;5.53;;;2.28;;
60352;SDS011;46196;52.970;6.954;2022-12-07T07:29:33;6.25;;;2.08;;
60352;SDS011;46196;52.970;6.954;2022-12-07T07:31:59;3.50;;;1.90;;
60352;SDS011;46196;52.970;6.954;2022-12-07T07:34:25;8.02;;;2.50;;
60352;SDS011;46196;52.970;6.954;2022-12-07T07:36:50;5.05;;;2.10;;
60352;SDS011;46196;52.970;6.954;2022-12-07T07:39:16;3.25;;;1.90;;
60352;SDS011;46196;52.970;6.954;2022-12-07T07:41:42;11.52;;;2.47;;
60352;SDS011;46196;52.970;6.954;2022-12-07T07:44:08;6.43;;;1.90;;
60352;SDS011;46196;52.970;6.954;2022-12-07T07:46:35;5.47;;;2.25;;
60352;SDS011;46196;52.970;6.954;2022-12-07T07:49:00;5.30;;;2.20;;
60352;SDS011;46196;52.970;6.954;2022-12-07T07:51:26;4.07;;;1.98;;
60352;SDS011;46196;52.970;6.954;2022-12-07T07:53:53;9.15;;;2.22;;
60352;SDS011;46196;52.970;6.954;2022-12-07T07:56:19;4.35;;;2.20;;
60352;SDS011;46196;52.970;6.954;2022-12-07T07:58:44;3.28;;;2.10;;
60352;SDS011;46196;52.970;6.954;2022-12-07T08:01:10;3.88;;;2.13;;
60352;SDS011;46196;52.970;6.954;2022-12-07T08:03:36;4.18;;;2.83;;
60352;SDS011;46196;52.970;6.954;2022-12-07T08:06:02;4.47;;;2.00;;
60352;SDS011;46196;52.970;6.954;2022-12-07T08:08:28;2.97;;;1.88;;
60352;SDS011;46196;52.970;6.954;2022-12-07T08:10:54;8.30;;;2.25;;
60352;SDS011;46196;52.970;6.954;2022-12-07T08:13:20;7.05;;;2.10;;
60352;SDS011;46196;52.970;6.954;2022-12-07T08:15:46;6.93;;;2.17;;
60352;SDS011;46196;52.970;6.954;2022-12-07T08:18:13;2.63;;;1.95;;
60352;SDS011;46196;52.970;6.954;2022-12-07T08:20:39;6.35;;;2.00;;
60352;SDS011;46196;52.970;6.954;2022-12-07T08:23:06;4.15;;;2.30;;
60352;SDS011;46196;52.970;6.954;2022-12-07T08:25:32;3.42;;;1.80;;
60352;SDS011;46196;52.970;6.954;2022-12-07T08:27:58;3.00;;;1.80;;
60352;SDS011;46196;52.970;6.954;2022-12-07T08:30:25;5.03;;;1.95;;
60352;SDS011;46196;52.970;6.954;2022-12-07T08:32:52;2.88;;;1.90;;
60352;SDS011;46196;52.970;6.954;2022-12-07T08:35:18;2.63;;;2.15;;
60352;SDS011;46196;52.970;6.954;2022-12-07T08:37:44;4.22;;;2.00;;
60352;SDS011;46196;52.970;6.954;2022-12-07T08:40:10;1.60;;;1.50;;
60352;SDS011;46196;52.970;6.954;2022-12-07T08:42:40;2.70;;;1.95;;
60352;SDS011;46196;52.970;6.954;2022-12-07T08:45:13;6.88;;;3.55;;
60352;SDS011;46196;52.970;6.954;2022-12-07T08:47:45;2.35;;;1.58;;
60352;SDS011;46196;52.970;6.954;2022-12-07T08:50:17;6.55;;;2.17;;
60352;SDS011;46196;52.970;6.954;2022-12-07T08:52:44;7.00;;;2.05;;
60352;SDS011;46196;52.970;6.954;2022-12-07T08:55:13;4.40;;;1.95;;
60352;SDS011;46196;52.970;6.954;2022-12-07T08:57:39;4.95;;;2.00;;
60352;SDS011;46196;52.970;6.954;2022-12-07T09:00:05;7.05;;;2.05;;
60352;SDS011;46196;52.970;6.954;2022-12-07T09:02:32;2.63;;;1.98;;
60352;SDS011;46196;52.970;6.954;2022-12-07T09:04:58;5.57;;;2.38;;
60352;SDS011;46196;52.970;6.954;2022-12-07T09:07:24;5.10;;;2.40;;
60352;SDS011;46196;52.970;6.954;2022-12-07T09:09:50;2.85;;;2.03;;
60352;SDS011;46196;52.970;6.954;2022-12-07T09:12:16;4.82;;;2.25;;
60352;SDS011;46196;52.970;6.954;2022-12-07T09:14:41;5.10;;;2.10;;
60352;SDS011;46196;52.970;6.954;2022-12-07T09:17:08;3.95;;;2.65;;
60352;SDS011;46196;52.970;6.954;2022-12-07T09:19:34;5.43;;;2.17;;
60352;SDS011;46196;52.970;6.954;2022-12-07T09:22:01;3.95;;;2.00;;
60352;SDS011;46196;52.970;6.954;2022-12-07T09:24:27;6.05;;;2.47;;
60352;SDS011;46196;52.970;6.954;2022-12-07T09:26:53;7.30;;;2.55;;
60352;SDS011;46196;52.970;6.954;2022-12-07T09:29:18;7.00;;;2.63;;
60352;SDS011;46196;52.970;6.954;2022-12-07T09:31:44;3.75;;;2.42;;
60352;SDS011;46196;52.970;6.954;2022-12-07T09:34:11;2.95;;;2.05;;
60352;SDS011;46196;52.970;6.954;2022-12-07T09:36:36;8.05;;;2.70;;
60352;SDS011;46196;52.970;6.954;2022-12-07T09:39:02;7.25;;;2.10;;
60352;SDS011;46196;52.970;6.954;2022-12-07T09:41:29;4.68;;;2.35;;
60352;SDS011;46196;52.970;6.954;2022-12-07T09:44:18;7.55;;;3.13;;
60352;SDS011;46196;52.970;6.954;2022-12-07T09:46:48;8.15;;;2.42;;
60352;SDS011;46196;52.970;6.954;2022-12-07T09:49:16;5.20;;;2.25;;
60352;SDS011;46196;52.970;6.954;2022-12-07T09:51:45;6.00;;;2.30;;
60352;SDS011;46196;52.970;6.954;2022-12-07T09:54:12;4.35;;;2.38;;
60352;SDS011;46196;52.970;6.954;2022-12-07T09:56:40;4.70;;;2.28;;
60352;SDS011;46196;52.970;6.954;2022-12-07T09:59:09;3.90;;;1.90;;
60352;SDS011;46196;52.970;6.954;2022-12-07T10:01:41;5.05;;;2.35;;
60352;SDS011;46196;52.970;6.954;2022-12-07T10:04:17;5.22;;;2.50;;
60352;SDS011;46196;52.970;6.954;2022-12-07T10:06:46;6.38;;;2.83;;
60352;SDS011;46196;52.970;6.954;2022-12-07T10:09:13;4.97;;;2.88;;
60352;SDS011;46196;52.970;6.954;2022-12-07T10:14:29;8.07;;;2.50;;
60352;SDS011;46196;52.970;6.954;2022-12-07T10:16:55;5.85;;;2.65;;
60352;SDS011;46196;52.970;6.954;2022-12-07T10:22:03;8.88;;;2.53;;
60352;SDS011;46196;52.970;6.954;2022-12-07T10:24:29;6.70;;;2.10;;
60352;SDS011;46196;52.970;6.954;2022-12-07T10:26:55;6.45;;;2.22;;
60352;SDS011;46196;52.970;6.954;2022-12-07T10:32:00;4.43;;;2.00;;
60352;SDS011;46196;52.970;6.954;2022-12-07T10:34:30;3.45;;;2.00;;
60352;SDS011;46196;52.970;6.954;2022-12-07T10:37:17;3.70;;;2.40;;
60352;SDS011;46196;52.970;6.954;2022-12-07T10:39:54;3.97;;;1.80;;
60352;SDS011;46196;52.970;6.954;2022-12-07T10:42:28;5.45;;;1.95;;
60352;SDS011;46196;52.970;6.954;2022-12-07T10:45:15;8.70;;;2.65;;
60352;SDS011;46196;52.970;6.954;2022-12-07T10:53:33;7.63;;;2.20;;
60352;SDS011;46196;52.970;6.954;2022-12-07T10:58:53;5.75;;;2.42;;
60352;SDS011;46196;52.970;6.954;2022-12-07T11:07:24;4.65;;;2.20;;
60352;SDS011;46196;52.970;6.954;2022-12-07T11:32:00;3.60;;;1.70;;
60352;SDS011;46196;52.970;6.954;2022-12-07T11:37:14;1.88;;;1.42;;
60352;SDS011;46196;52.970;6.954;2022-12-07T11:42:25;3.92;;;2.20;;
60352;SDS011;46196;52.970;6.954;2022-12-07T11:47:57;5.47;;;2.25;;
60352;SDS011;46196;52.970;6.954;2022-12-07T11:56:11;3.17;;;1.90;;
60352;SDS011;46196;52.970;6.954;2022-12-07T11:58:57;4.15;;;2.05;;
60352;SDS011;46196;52.970;6.954;2022-12-07T12:06:35;4.55;;;2.40;;
60352;SDS011;46196;52.970;6.954;2022-12-07T12:09:17;3.03;;;2.00;;
60352;SDS011;46196;52.970;6.954;2022-12-07T12:23:05;1.85;;;1.65;;
60352;SDS011;46196;52.970;6.954;2022-12-07T12:28:40;2.58;;;1.85;;
60352;SDS011;46196;52.970;6.954;2022-12-07T12:33:47;1.67;;;1.55;;
60352;SDS011;46196;52.970;6.954;2022-12-07T12:36:30;2.60;;;1.75;;
60352;SDS011;46196;52.970;6.954;2022-12-07T12:39:11;2.97;;;1.90;;
60352;SDS011;46196;52.970;6.954;2022-12-07T12:46:54;3.90;;;1.70;;
60352;SDS011;46196;52.970;6.954;2022-12-07T12:54:38;3.55;;;2.20;;
60352;SDS011;46196;52.970;6.954;2022-12-07T12:57:31;2.88;;;2.05;;
60352;SDS011;46196;52.970;6.954;2022-12-07T12:59:58;2.33;;;1.85;;
60352;SDS011;46196;52.970;6.954;2022-12-07T13:02:37;7.28;;;2.55;;
60352;SDS011;46196;52.970;6.954;2022-12-07T13:23:52;3.38;;;2.20;;
60352;SDS011;46196;52.970;6.954;2022-12-07T13:28:50;6.50;;;1.85;;
60352;SDS011;46196;52.970;6.954;2022-12-07T13:31:36;7.43;;;2.30;;
60352;SDS011;46196;52.970;6.954;2022-12-07T13:34:32;5.70;;;2.35;;
60352;SDS011;46196;52.970;6.954;2022-12-07T13:36:59;4.70;;;2.30;;
60352;SDS011;46196;52.970;6.954;2022-12-07T13:39:54;7.68;;;2.50;;
60352;SDS011;46196;52.970;6.954;2022-12-07T13:44:56;3.63;;;2.40;;
60352;SDS011;46196;52.970;6.954;2022-12-07T13:47:44;4.43;;;2.17;;
60352;SDS011;46196;52.970;6.954;2022-12-07T13:50:30;6.78;;;2.35;;
60352;SDS011;46196;52.970;6.954;2022-12-07T13:52:57;3.88;;;1.90;;
60352;SDS011;46196;52.970;6.954;2022-12-07T13:55:24;2.05;;;1.73;;
60352;SDS011;46196;52.970;6.954;2022-12-07T13:57:52;2.92;;;1.83;;
60352;SDS011;46196;52.970;6.954;2022-12-07T14:00:19;2.20;;;1.80;;
60352;SDS011;46196;52.970;6.954;2022-12-07T14:03:00;2.40;;;1.80;;
60352;SDS011;46196;52.970;6.954;2022-12-07T14:05:30;4.30;;;2.20;;
60352;SDS011;46196;52.970;6.954;2022-12-07T14:07:58;3.08;;;2.13;;
60352;SDS011;46196;52.970;6.954;2022-12-07T14:10:28;2.20;;;1.83;;
60352;SDS011;46196;52.970;6.954;2022-12-07T14:12:57;3.00;;;2.00;;
60352;SDS011;46196;52.970;6.954;2022-12-07T14:15:31;3.63;;;2.00;;
60352;SDS011;46196;52.970;6.954;2022-12-07T14:17:58;2.47;;;1.80;;
60352;SDS011;46196;52.970;6.954;2022-12-07T14:23:01;1.98;;;1.70;;
60352;SDS011;46196;52.970;6.954;2022-12-07T14:26:03;4.47;;;1.95;;
60352;SDS011;46196;52.970;6.954;2022-12-07T14:28:31;5.35;;;2.10;;
60352;SDS011;46196;52.970;6.954;2022-12-07T14:30:58;2.83;;;2.00;;
60352;SDS011;46196;52.970;6.954;2022-12-07T14:33:25;3.90;;;1.90;;
60352;SDS011;46196;52.970;6.954;2022-12-07T14:35:51;3.55;;;1.73;;
60352;SDS011;46196;52.970;6.954;2022-12-07T14:38:23;1.98;;;1.60;;
60352;SDS011;46196;52.970;6.954;2022-12-07T14:40:50;3.72;;;1.90;;
60352;SDS011;46196;52.970;6.954;2022-12-07T14:43:16;2.67;;;1.70;;
60352;SDS011;46196;52.970;6.954;2022-12-07T14:45:44;2.60;;;1.85;;
60352;SDS011;46196;52.970;6.954;2022-12-07T14:48:13;2.75;;;1.80;;
60352;SDS011;46196;52.970;6.954;2022-12-07T14:50:42;3.10;;;1.80;;
60352;SDS011;46196;52.970;6.954;2022-12-07T14:53:12;3.05;;;1.77;;
60352;SDS011;46196;52.970;6.954;2022-12-07T14:55:40;3.47;;;1.90;;
60352;SDS011;46196;52.970;6.954;2022-12-07T14:58:06;2.85;;;1.95;;
60352;SDS011;46196;52.970;6.954;2022-12-07T15:00:37;3.53;;;1.90;;
60352;SDS011;46196;52.970;6.954;2022-12-07T15:03:02;3.03;;;2.00;;
60352;SDS011;46196;52.970;6.954;2022-12-07T15:05:28;3.88;;;1.98;;
60352;SDS011;46196;52.970;6.954;2022-12-07T15:07:54;4.93;;;2.20;;
60352;SDS011;46196;52.970;6.954;2022-12-07T15:10:21;2.05;;;1.85;;
60352;SDS011;46196;52.970;6.954;2022-12-07T15:12:48;4.00;;;2.08;;
60352;SDS011;46196;52.970;6.954;2022-12-07T15:15:14;7.30;;;2.03;;
60352;SDS011;46196;52.970;6.954;2022-12-07T15:17:40;2.95;;;1.92;;
60352;SDS011;46196;52.970;6.954;2022-12-07T15:20:08;3.33;;;1.95;;
60352;SDS011;46196;52.970;6.954;2022-12-07T15:22:37;2.20;;;1.80;;
60352;SDS011;46196;52.970;6.954;2022-12-07T15:25:03;3.67;;;1.80;;
60352;SDS011;46196;52.970;6.954;2022-12-07T15:27:30;2.67;;;2.22;;
60352;SDS011;46196;52.970;6.954;2022-12-07T15:29:56;3.50;;;2.13;;
60352;SDS011;46196;52.970;6.954;2022-12-07T15:32:22;4.53;;;1.90;;
60352;SDS011;46196;52.970;6.954;2022-12-07T15:34:48;3.88;;;2.00;;
60352;SDS011;46196;52.970;6.954;2022-12-07T15:37:15;2.35;;;1.85;;
60352;SDS011;46196;52.970;6.954;2022-12-07T15:39:41;4.85;;;1.90;;
60352;SDS011;46196;52.970;6.954;2022-12-07T15:42:06;4.13;;;2.17;;
60352;SDS011;46196;52.970;6.954;2022-12-07T15:44:32;2.42;;;1.80;;
60352;SDS011;46196;52.970;6.954;2022-12-07T15:47:17;2.30;;;1.50;;
60352;SDS011;46196;52.970;6.954;2022-12-07T15:49:42;1.77;;;1.40;;
60352;SDS011;46196;52.970;6.954;2022-12-07T15:52:08;2.80;;;1.48;;
60352;SDS011;46196;52.970;6.954;2022-12-07T15:54:34;5.35;;;1.63;;
60352;SDS011;46196;52.970;6.954;2022-12-07T15:57:01;4.18;;;1.55;;
60352;SDS011;46196;52.970;6.954;2022-12-07T15:59:27;2.97;;;1.40;;
60352;SDS011;46196;52.970;6.954;2022-12-07T16:01:54;3.28;;;1.40;;
60352;SDS011;46196;52.970;6.954;2022-12-07T16:04:20;3.33;;;1.50;;
60352;SDS011;46196;52.970;6.954;2022-12-07T16:06:46;2.85;;;2.00;;
60352;SDS011;46196;52.970;6.954;2022-12-07T16:09:11;2.38;;;1.63;;
60352;SDS011;46196;52.970;6.954;2022-12-07T16:11:37;3.20;;;1.60;;
60352;SDS011;46196;52.970;6.954;2022-12-07T16:14:03;3.70;;;1.80;;
60352;SDS011;46196;52.970;6.954;2022-12-07T16:16:29;4.15;;;2.05;;
60352;SDS011;46196;52.970;6.954;2022-12-07T16:18:55;2.75;;;1.80;;
60352;SDS011;46196;52.970;6.954;2022-12-07T16:21:22;2.40;;;1.73;;
60352;SDS011;46196;52.970;6.954;2022-12-07T16:23:47;2.17;;;1.63;;
60352;SDS011;46196;52.970;6.954;2022-12-07T16:26:15;4.05;;;2.33;;
60352;SDS011;46196;52.970;6.954;2022-12-07T16:28:43;2.67;;;1.80;;
60352;SDS011;46196;52.970;6.954;2022-12-07T16:31:14;2.60;;;2.00;;
60352;SDS011;46196;52.970;6.954;2022-12-07T16:33:41;2.83;;;2.10;;
60352;SDS011;46196;52.970;6.954;2022-12-07T16:36:08;5.65;;;2.00;;
60352;SDS011;46196;52.970;6.954;2022-12-07T16:38:36;4.30;;;2.28;;
60352;SDS011;46196;52.970;6.954;2022-12-07T16:41:03;3.05;;;2.30;;
60352;SDS011;46196;52.970;6.954;2022-12-07T16:43:29;3.92;;;2.70;;
60352;SDS011;46196;52.970;6.954;2022-12-07T16:45:55;4.22;;;2.67;;
60352;SDS011;46196;52.970;6.954;2022-12-07T16:48:21;6.57;;;2.35;;
60352;SDS011;46196;52.970;6.954;2022-12-07T16:50:47;3.80;;;2.30;;
60352;SDS011;46196;52.970;6.954;2022-12-07T16:53:13;4.07;;;2.20;;
60352;SDS011;46196;52.970;6.954;2022-12-07T16:55:42;5.22;;;2.70;;
60352;SDS011;46196;52.970;6.954;2022-12-07T16:58:09;3.93;;;1.97;;
60352;SDS011;46196;52.970;6.954;2022-12-07T17:00:39;4.07;;;1.90;;
60352;SDS011;46196;52.970;6.954;2022-12-07T17:03:06;4.63;;;2.20;;
60352;SDS011;46196;52.970;6.954;2022-12-07T17:05:33;3.20;;;2.20;;
60352;SDS011;46196;52.970;6.954;2022-12-07T17:08:02;3.50;;;2.13;;
60352;SDS011;46196;52.970;6.954;2022-12-07T17:10:28;3.20;;;2.10;;
60352;SDS011;46196;52.970;6.954;2022-12-07T17:12:54;3.45;;;2.00;;
60352;SDS011;46196;52.970;6.954;2022-12-07T17:15:20;4.13;;;2.22;;
60352;SDS011;46196;52.970;6.954;2022-12-07T17:17:58;6.18;;;1.85;;
60352;SDS011;46196;52.970;6.954;2022-12-07T17:20:26;2.00;;;1.70;;
60352;SDS011;46196;52.970;6.954;2022-12-07T17:22:52;5.97;;;1.77;;
60352;SDS011;46196;52.970;6.954;2022-12-07T17:25:18;3.28;;;2.08;;
60352;SDS011;46196;52.970;6.954;2022-12-07T17:27:45;2.90;;;1.90;;
60352;SDS011;46196;52.970;6.954;2022-12-07T17:30:11;2.70;;;1.80;;
60352;SDS011;46196;52.970;6.954;2022-12-07T17:32:38;4.68;;;2.00;;
60352;SDS011;46196;52.970;6.954;2022-12-07T17:35:04;2.95;;;1.70;;